Enter the Airport ICAO Code

Search by Airport or City

Current Weather

SYCJ | Cheddi Jagan International Airport

Georgetown, Guyana

Last Update 13 Minutes Ago

Mostly Cloudy Sky

Temperature of 30 ēC

Light Winds from East

Temperature

30 ēC

Dew Point Temperature

25 ēC

Relative Humidity

74.76 %

Wind Direction

East (090ē, Without Significant Variations)

Wind Velocity

7 km/h (04 kt)

Gusts

None

Visibility

Greater than 10 Kilometers

Sea Level Pressure

1013 hPa (Hectopascals)

Layers of Clouds

30% to 60% of Sky Covered from 579 mts (1900 ft) Above Ground Level.

60% to 90% of Sky Covered from 2743 mts (9000 ft) Above Ground Level.

METAR SYCJ 031400Z 09004KT 9999 SCT019 BKN090 30/25 Q1013 NOSIG

Weather Forecast

SYCJ | Cheddi Jagan International Airport

Georgetown, Guyana

Forecast valid for the next 22 Hours

From now on it is expected:

Light Rain, Rain Shower

Light to Moderate Winds from East

In 3 to 5 hours it is expected the begining of:

Mostly Cloudy Sky

In 10 to 13 hours it is expected the begining of:

Rain

Light Winds from Variable Directions

Maximum Temperature

No Data

Minimum Temperature

No Data

TAF SYCJ 031100Z 0312/0412 09006KT 070V130 9000 -SHRA VCSH FEW016CB BKN017 BKN037 BECMG 0317/0319 9999 BKN019 BKN100 BECMG 0400/0403 VRB04KT 7000 SHRA BKN016 BKN036